Tenjinmaru No11 — JD3353 — position and weather

sailwx.info

Track history (hours):
 
Tides and Currents Weather Stations Pressure Air Temp Water Temp Dewpoint Dewpoint Depression Visibility Wind Speed Wind Dir Waves Ship Positions

Tenjinmaru No11

Last reported at 2017-Jun-24 08:42 UTC. Time now 2017-Jun-29 10:52 UTC.
Position N 34°04' E 135°01'.

Length 75 m; draft 4.5 m.

Type: Cargo ship. MMSI: 431003485.

Date/timePositionNaut miles runAvg speedWind from/ knotsBaromVisibWave heightAir tempDewpointWater temp
2017-Jun-24 08:42N 34°04' E 135°01'210.8
2017-Jun-24 08:30N 34°07' E 135°00'612.1
2017-Jun-24 08:00N 34°13' E 134°59'911.5
2017-Jun-24 07:15N 34°21' E 134°59'611.4
2017-Jun-24 06:45N 34°26' E 135°03'412.4
2017-Jun-24 06:27N 34°29' E 135°06'612.9
2017-Jun-24 06:00N 34°34' E 135°09'510.9
2017-Jun-24 05:30N 34°39' E 135°11'2 2.6
2017-Jun-24 04:56N 34°41' E 135°12'0 0.0
2017-Jun-24 04:26N 34°41' E 135°12'0 0.0
2017-Jun-24 03:50N 34°41' E 135°12'0 0.0
2017-Jun-24 03:26N 34°41' E 135°12'0 0.0
2017-Jun-24 03:00N 34°41' E 135°12'0 0.6
2017-Jun-24 02:30N 34°40' E 135°12'1 1.3
2017-Jun-24 02:00N 34°40' E 135°12'0 0.0
2017-Jun-24 01:14N 34°40' E 135°12'0 0.0
2017-Jun-24 00:56N 34°40' E 135°12'0 0.1
2017-Jun-24 00:26N 34°40' E 135°12'0 0.1
2017-Jun-23 23:50N 34°40' E 135°12'0 0.0
2017-Jun-23 23:26N 34°40' E 135°12'0 0.0
2017-Jun-23 22:56N 34°40' E 135°12'0 0.1
2017-Jun-23 22:20N 34°40' E 135°12'0 0.0
2017-Jun-23 21:56N 34°40' E 135°12'0 0.0
2017-Jun-23 21:20N 34°40' E 135°12'0 0.0
2017-Jun-23 20:56N 34°40' E 135°12'0 0.0
2017-Jun-23 20:14N 34°40' E 135°12'0 0.0
2017-Jun-23 19:50N 34°40' E 135°12'0 0.0
2017-Jun-23 19:26N 34°40' E 135°12'0 0.0
2017-Jun-23 18:56N 34°40' E 135°12'0 0.1
2017-Jun-23 18:26N 34°40' E 135°12'0 0.1
2017-Jun-23 17:50N 34°40' E 135°12'0 0.0
2017-Jun-23 17:08N 34°40' E 135°12'0 0.0
2017-Jun-23 16:56N 34°40' E 135°12'0 0.1
2017-Jun-23 16:20N 34°40' E 135°12'0 0.0
2017-Jun-23 15:56N 34°40' E 135°12'0 0.0
2017-Jun-23 15:20N 34°40' E 135°12'0 0.0
2017-Jun-23 14:56N 34°40' E 135°12'0 0.0
2017-Jun-23 13:50N 34°40' E 135°12'0 0.0
2017-Jun-23 13:20N 34°40' E 135°12'0 0.0
2017-Jun-23 12:56N 34°40' E 135°12'0 0.1
2017-Jun-23 12:26N 34°40' E 135°12'0 0.0
2017-Jun-23 11:56N 34°40' E 135°12'0 0.0
2017-Jun-23 11:14N 34°40' E 135°12'0 0.0
2017-Jun-23 10:56N 34°40' E 135°12'0 0.0
2017-Jun-23 10:20N 34°40' E 135°12'0 0.0
2017-Jun-23 09:56N 34°40' E 135°12'0 0.0
2017-Jun-23 09:26N 34°40' E 135°12'0 0.0
2017-Jun-23 08:56N 34°40' E 135°12'0 0.0
2017-Jun-23 08:26N 34°40' E 135°12'0 0.0
2017-Jun-23 07:56N 34°40' E 135°12'0 0.0
2017-Jun-23 07:20N 34°40' E 135°12'0 0.0
2017-Jun-23 06:56N 34°40' E 135°12'0 0.1
2017-Jun-23 06:26N 34°40' E 135°12'0 0.0
2017-Jun-23 05:56N 34°40' E 135°12'0 0.0
2017-Jun-23 05:26N 34°40' E 135°12'0 0.0
2017-Jun-23 04:56N 34°40' E 135°12'0 0.0
2017-Jun-23 04:14N 34°40' E 135°12'0 0.2
2017-Jun-23 03:55N 34°40' E 135°12'3 6.2
2017-Jun-23 03:30N 34°37' E 135°13'510.8
2017-Jun-23 03:00N 34°40' E 135°18'1 1.9
2017-Jun-23 02:17N 34°41' E 135°17'0 0.0
2017-Jun-23 01:59N 34°41' E 135°17'0 0.8
2017-Jun-23 01:30N 34°41' E 135°18'1 0.7
2017-Jun-23 00:43N 34°41' E 135°19'0 0.1
2017-Jun-23 00:25N 34°41' E 135°19'0 0.0
2017-Jun-22 23:49N 34°41' E 135°19'0 0.0
2017-Jun-22 23:25N 34°41' E 135°19'0 0.0
2017-Jun-22 22:49N 34°41' E 135°19'0 0.0
2017-Jun-22 22:26N 34°41' E 135°19'2 5.5
2017-Jun-22 22:00N 34°39' E 135°17'5 9.7
2017-Jun-22 21:30N 34°37' E 135°12'612.0
2017-Jun-22 21:00N 34°35' E 135°05'5 9.4
2017-Jun-22 20:30N 34°37' E 135°00'  
2017-Jun-20 13:54N 34°13' E 135°03'3 9.0
2017-Jun-20 13:31N 34°14' E 135°07'0 0.5
2017-Jun-20 13:00N 34°15' E 135°07'0 0.0
2017-Jun-20 12:30N 34°15' E 135°07'0 0.0
2017-Jun-20 12:00N 34°15' E 135°07'0 0.0
2017-Jun-20 11:30N 34°15' E 135°07'0 0.0
2017-Jun-20 11:00N 34°15' E 135°07'0 0.0
2017-Jun-20 10:30N 34°15' E 135°07'0 0.0
2017-Jun-20 10:00N 34°15' E 135°07'0 0.1
2017-Jun-20 09:30N 34°15' E 135°07'0 0.1
2017-Jun-20 09:00N 34°15' E 135°07'0 0.0
2017-Jun-20 08:27N 34°15' E 135°07'0 0.0
2017-Jun-20 08:00N 34°15' E 135°07'0 0.0
2017-Jun-20 07:30N 34°15' E 135°07'0 0.0
2017-Jun-20 06:57N 34°15' E 135°07'0 0.0
2017-Jun-20 06:30N 34°15' E 135°07'0 0.0
2017-Jun-20 06:00N 34°15' E 135°07'0 0.0
2017-Jun-20 05:30N 34°15' E 135°07'0 0.2
2017-Jun-20 05:01N 34°15' E 135°07'0 0.9
2017-Jun-20 04:29N 34°15' E 135°06'0 0.0
2017-Jun-20 03:59N 34°15' E 135°06'0 0.0
2017-Jun-20 03:29N 34°15' E 135°06'0 0.0
2017-Jun-20 02:59N 34°15' E 135°06'0 0.0
2017-Jun-20 02:29N 34°15' E 135°06'0 0.0
2017-Jun-20 01:59N 34°15' E 135°06'0 0.0
2017-Jun-20 01:29N 34°15' E 135°06'0 0.0
2017-Jun-20 00:59N 34°15' E 135°06'0 0.0
2017-Jun-20 00:29N 34°15' E 135°06'0 0.1
2017-Jun-19 23:59N 34°15' E 135°06'0 0.0
2017-Jun-19 23:29N 34°15' E 135°06'0 0.0
2017-Jun-19 22:59N 34°15' E 135°06'0 0.0
2017-Jun-19 22:29N 34°15' E 135°06'0 0.0
2017-Jun-19 21:59N 34°15' E 135°06'0 0.0
2017-Jun-19 21:29N 34°15' E 135°06'0 0.0
2017-Jun-19 20:59N 34°15' E 135°06'0 0.0
2017-Jun-19 20:29N 34°15' E 135°06'0 0.0
2017-Jun-19 19:59N 34°15' E 135°06'0 0.0
2017-Jun-19 19:29N 34°15' E 135°06'0 0.0
2017-Jun-19 18:50N 34°15' E 135°06'0 0.0
2017-Jun-19 18:29N 34°15' E 135°06'0 0.0
2017-Jun-19 17:59N 34°15' E 135°06'0 0.0
2017-Jun-19 17:29N 34°15' E 135°06'0 0.0
2017-Jun-19 16:59N 34°15' E 135°06'0 0.0
2017-Jun-19 16:29N 34°15' E 135°06'0 0.0
2017-Jun-19 15:59N 34°15' E 135°06'0 0.0
2017-Jun-19 15:29N 34°15' E 135°06'0 0.0
2017-Jun-19 14:59N 34°15' E 135°06'0 0.0
2017-Jun-19 14:29N 34°15' E 135°06'0 0.0
2017-Jun-19 13:29N 34°15' E 135°06'0 0.0
2017-Jun-19 12:59N 34°15' E 135°06'0 0.0
2017-Jun-19 12:29N 34°15' E 135°06'0 0.0
2017-Jun-19 11:59N 34°15' E 135°06'0 0.0
2017-Jun-19 11:29N 34°15' E 135°06'0 0.0
2017-Jun-19 10:59N 34°15' E 135°06'0 0.0
2017-Jun-19 10:29N 34°15' E 135°06'0 0.0
2017-Jun-19 09:59N 34°15' E 135°06'3 6.2
2017-Jun-19 09:30N 34°16' E 135°03'1011.0
2017-Jun-19 08:34N 34°25' E 135°09'111.6
2017-Jun-19 08:30N 34°25' E 135°10'611.7
2017-Jun-19 08:00N 34°30' E 135°14'612.0
2017-Jun-19 07:29N 34°35' E 135°19'511.4
2017-Jun-19 07:00N 34°38' E 135°24'3 5.7
2017-Jun-19 06:30N 34°39' E 135°27'0 0.0
2017-Jun-19 05:58N 34°39' E 135°27'0 0.0
2017-Jun-18 23:28N 34°39' E 135°27'0 0.0
2017-Jun-18 22:59N 34°39' E 135°27'2 5.2
2017-Jun-18 22:30N 34°39' E 135°24'1 2.4
2017-Jun-18 21:55N 34°37' E 135°23'0 0.0
2017-Jun-18 21:19N 34°37' E 135°23'0 0.0
2017-Jun-18 21:01N 34°37' E 135°23'0 0.0
2017-Jun-18 20:25N 34°37' E 135°23'0 0.0
2017-Jun-18 19:55N 34°37' E 135°23'0 0.0
2017-Jun-18 19:25N 34°37' E 135°23'0 0.0
2017-Jun-18 18:55N 34°37' E 135°23'0 0.0
2017-Jun-18 18:25N 34°37' E 135°23'0 0.0
2017-Jun-18 17:55N 34°37' E 135°23'0 0.0
2017-Jun-18 17:25N 34°37' E 135°23'0 0.0
2017-Jun-18 16:55N 34°37' E 135°23'0 0.0
2017-Jun-18 16:25N 34°37' E 135°23'0 0.0
2017-Jun-18 15:55N 34°37' E 135°23'0 0.0
2017-Jun-18 15:19N 34°37' E 135°23'0 0.0
2017-Jun-18 14:49N 34°37' E 135°23'0 0.0
2017-Jun-18 13:55N 34°37' E 135°23'0 0.0
2017-Jun-18 13:25N 34°37' E 135°23'0 0.0
2017-Jun-18 13:00N 34°37' E 135°23'0 0.0
2017-Jun-18 12:25N 34°37' E 135°23'0 0.0
2017-Jun-18 11:55N 34°37' E 135°23'0 0.0
2017-Jun-18 11:19N 34°37' E 135°23'0 0.0
2017-Jun-18 10:49N 34°37' E 135°23'0 0.0
2017-Jun-18 10:25N 34°37' E 135°23'0 0.0
2017-Jun-18 09:43N 34°37' E 135°23'0 0.0
2017-Jun-18 09:25N 34°37' E 135°23'0 0.0
2017-Jun-18 08:43N 34°37' E 135°23'0 0.1
2017-Jun-18 08:31N 34°38' E 135°23'0 0.0
2017-Jun-18 07:55N 34°38' E 135°23'0 0.0
2017-Jun-18 07:31N 34°38' E 135°23'0 0.0
2017-Jun-18 06:54N 34°38' E 135°23'0 0.0
2017-Jun-18 06:25N 34°38' E 135°23'2 4.9
2017-Jun-18 06:00N 34°36' E 135°21'611.8
2017-Jun-18 05:29N 34°32' E 135°16'611.7
2017-Jun-18 05:00N 34°28' E 135°11'611.5
2017-Jun-18 04:30N 34°24' E 135°06'1210.5
2017-Jun-18 03:21N 34°13' E 134°59'  
2017-Jun-14 20:25N 34°08' E 134°44'  
Track history (hours):
 
Tides and Currents Weather Stations Pressure Air Temp Water Temp Dewpoint Dewpoint Depression Visibility Wind Speed Wind Dir Waves Ship Positions

Tenjinmaru No11

Last reported at 2017-Jun-24 08:42 UTC. Time now 2017-Jun-29 10:52 UTC.
Position N 34°04' E 135°01'.

Length 75 m; draft 4.5 m.

Type: Cargo ship. MMSI: 431003485.

Date/timePositionNaut miles runAvg speedWind from/ knotsBaromVisibWave heightAir tempDewpointWater temp
2017-Jun-24 08:42N 34°04' E 135°01'210.8
2017-Jun-24 08:30N 34°07' E 135°00'612.1
2017-Jun-24 08:00N 34°13' E 134°59'911.5
2017-Jun-24 07:15N 34°21' E 134°59'611.4
2017-Jun-24 06:45N 34°26' E 135°03'412.4
2017-Jun-24 06:27N 34°29' E 135°06'612.9
2017-Jun-24 06:00N 34°34' E 135°09'510.9
2017-Jun-24 05:30N 34°39' E 135°11'2 2.6
2017-Jun-24 04:56N 34°41' E 135°12'0 0.0
2017-Jun-24 04:26N 34°41' E 135°12'0 0.0
2017-Jun-24 03:50N 34°41' E 135°12'0 0.0
2017-Jun-24 03:26N 34°41' E 135°12'0 0.0
2017-Jun-24 03:00N 34°41' E 135°12'0 0.6
2017-Jun-24 02:30N 34°40' E 135°12'1 1.3
2017-Jun-24 02:00N 34°40' E 135°12'0 0.0
2017-Jun-24 01:14N 34°40' E 135°12'0 0.0
2017-Jun-24 00:56N 34°40' E 135°12'0 0.1
2017-Jun-24 00:26N 34°40' E 135°12'0 0.1
2017-Jun-23 23:50N 34°40' E 135°12'0 0.0
2017-Jun-23 23:26N 34°40' E 135°12'0 0.0
2017-Jun-23 22:56N 34°40' E 135°12'0 0.1
2017-Jun-23 22:20N 34°40' E 135°12'0 0.0
2017-Jun-23 21:56N 34°40' E 135°12'0 0.0
2017-Jun-23 21:20N 34°40' E 135°12'0 0.0
2017-Jun-23 20:56N 34°40' E 135°12'0 0.0
2017-Jun-23 20:14N 34°40' E 135°12'0 0.0
2017-Jun-23 19:50N 34°40' E 135°12'0 0.0
2017-Jun-23 19:26N 34°40' E 135°12'0 0.0
2017-Jun-23 18:56N 34°40' E 135°12'0 0.1
2017-Jun-23 18:26N 34°40' E 135°12'0 0.1
2017-Jun-23 17:50N 34°40' E 135°12'0 0.0
2017-Jun-23 17:08N 34°40' E 135°12'0 0.0
2017-Jun-23 16:56N 34°40' E 135°12'0 0.1
2017-Jun-23 16:20N 34°40' E 135°12'0 0.0
2017-Jun-23 15:56N 34°40' E 135°12'0 0.0
2017-Jun-23 15:20N 34°40' E 135°12'0 0.0
2017-Jun-23 14:56N 34°40' E 135°12'0 0.0
2017-Jun-23 13:50N 34°40' E 135°12'0 0.0
2017-Jun-23 13:20N 34°40' E 135°12'0 0.0
2017-Jun-23 12:56N 34°40' E 135°12'0 0.1
2017-Jun-23 12:26N 34°40' E 135°12'0 0.0
2017-Jun-23 11:56N 34°40' E 135°12'0 0.0
2017-Jun-23 11:14N 34°40' E 135°12'0 0.0
2017-Jun-23 10:56N 34°40' E 135°12'0 0.0
2017-Jun-23 10:20N 34°40' E 135°12'0 0.0
2017-Jun-23 09:56N 34°40' E 135°12'0 0.0
2017-Jun-23 09:26N 34°40' E 135°12'0 0.0
2017-Jun-23 08:56N 34°40' E 135°12'0 0.0
2017-Jun-23 08:26N 34°40' E 135°12'0 0.0
2017-Jun-23 07:56N 34°40' E 135°12'0 0.0
2017-Jun-23 07:20N 34°40' E 135°12'0 0.0
2017-Jun-23 06:56N 34°40' E 135°12'0 0.1
2017-Jun-23 06:26N 34°40' E 135°12'0 0.0
2017-Jun-23 05:56N 34°40' E 135°12'0 0.0
2017-Jun-23 05:26N 34°40' E 135°12'0 0.0
2017-Jun-23 04:56N 34°40' E 135°12'0 0.0
2017-Jun-23 04:14N 34°40' E 135°12'0 0.2
2017-Jun-23 03:55N 34°40' E 135°12'3 6.2
2017-Jun-23 03:30N 34°37' E 135°13'510.8
2017-Jun-23 03:00N 34°40' E 135°18'1 1.9
2017-Jun-23 02:17N 34°41' E 135°17'0 0.0
2017-Jun-23 01:59N 34°41' E 135°17'0 0.8
2017-Jun-23 01:30N 34°41' E 135°18'1 0.7
2017-Jun-23 00:43N 34°41' E 135°19'0 0.1
2017-Jun-23 00:25N 34°41' E 135°19'0 0.0
2017-Jun-22 23:49N 34°41' E 135°19'0 0.0
2017-Jun-22 23:25N 34°41' E 135°19'0 0.0
2017-Jun-22 22:49N 34°41' E 135°19'0 0.0
2017-Jun-22 22:26N 34°41' E 135°19'2 5.5
2017-Jun-22 22:00N 34°39' E 135°17'5 9.7
2017-Jun-22 21:30N 34°37' E 135°12'612.0
2017-Jun-22 21:00N 34°35' E 135°05'5 9.4
2017-Jun-22 20:30N 34°37' E 135°00'  
2017-Jun-20 13:54N 34°13' E 135°03'3 9.0
2017-Jun-20 13:31N 34°14' E 135°07'0 0.5
2017-Jun-20 13:00N 34°15' E 135°07'0 0.0
2017-Jun-20 12:30N 34°15' E 135°07'0 0.0
2017-Jun-20 12:00N 34°15' E 135°07'0 0.0
2017-Jun-20 11:30N 34°15' E 135°07'0 0.0
2017-Jun-20 11:00N 34°15' E 135°07'0 0.0
2017-Jun-20 10:30N 34°15' E 135°07'0 0.0
2017-Jun-20 10:00N 34°15' E 135°07'0 0.1
2017-Jun-20 09:30N 34°15' E 135°07'0 0.1
2017-Jun-20 09:00N 34°15' E 135°07'0 0.0
2017-Jun-20 08:27N 34°15' E 135°07'0 0.0
2017-Jun-20 08:00N 34°15' E 135°07'0 0.0
2017-Jun-20 07:30N 34°15' E 135°07'0 0.0
2017-Jun-20 06:57N 34°15' E 135°07'0 0.0
2017-Jun-20 06:30N 34°15' E 135°07'0 0.0
2017-Jun-20 06:00N 34°15' E 135°07'0 0.0
2017-Jun-20 05:30N 34°15' E 135°07'0 0.2
2017-Jun-20 05:01N 34°15' E 135°07'0 0.9
2017-Jun-20 04:29N 34°15' E 135°06'0 0.0
2017-Jun-20 03:59N 34°15' E 135°06'0 0.0
2017-Jun-20 03:29N 34°15' E 135°06'0 0.0
2017-Jun-20 02:59N 34°15' E 135°06'0 0.0
2017-Jun-20 02:29N 34°15' E 135°06'0 0.0
2017-Jun-20 01:59N 34°15' E 135°06'0 0.0
2017-Jun-20 01:29N 34°15' E 135°06'0 0.0
2017-Jun-20 00:59N 34°15' E 135°06'0 0.0
2017-Jun-20 00:29N 34°15' E 135°06'0 0.1
2017-Jun-19 23:59N 34°15' E 135°06'0 0.0
2017-Jun-19 23:29N 34°15' E 135°06'0 0.0
2017-Jun-19 22:59N 34°15' E 135°06'0 0.0
2017-Jun-19 22:29N 34°15' E 135°06'0 0.0
2017-Jun-19 21:59N 34°15' E 135°06'0 0.0
2017-Jun-19 21:29N 34°15' E 135°06'0 0.0
2017-Jun-19 20:59N 34°15' E 135°06'0 0.0
2017-Jun-19 20:29N 34°15' E 135°06'0 0.0
2017-Jun-19 19:59N 34°15' E 135°06'0 0.0
2017-Jun-19 19:29N 34°15' E 135°06'0 0.0
2017-Jun-19 18:50N 34°15' E 135°06'0 0.0
2017-Jun-19 18:29N 34°15' E 135°06'0 0.0
2017-Jun-19 17:59N 34°15' E 135°06'0 0.0
2017-Jun-19 17:29N 34°15' E 135°06'0 0.0
2017-Jun-19 16:59N 34°15' E 135°06'0 0.0
2017-Jun-19 16:29N 34°15' E 135°06'0 0.0
2017-Jun-19 15:59N 34°15' E 135°06'0 0.0
2017-Jun-19 15:29N 34°15' E 135°06'0 0.0
2017-Jun-19 14:59N 34°15' E 135°06'0 0.0
2017-Jun-19 14:29N 34°15' E 135°06'0 0.0
2017-Jun-19 13:29N 34°15' E 135°06'0 0.0
2017-Jun-19 12:59N 34°15' E 135°06'0 0.0
2017-Jun-19 12:29N 34°15' E 135°06'0 0.0
2017-Jun-19 11:59N 34°15' E 135°06'0 0.0
2017-Jun-19 11:29N 34°15' E 135°06'0 0.0
2017-Jun-19 10:59N 34°15' E 135°06'0 0.0
2017-Jun-19 10:29N 34°15' E 135°06'0 0.0
2017-Jun-19 09:59N 34°15' E 135°06'3 6.2
2017-Jun-19 09:30N 34°16' E 135°03'1011.0
2017-Jun-19 08:34N 34°25' E 135°09'111.6
2017-Jun-19 08:30N 34°25' E 135°10'611.7
2017-Jun-19 08:00N 34°30' E 135°14'612.0
2017-Jun-19 07:29N 34°35' E 135°19'511.4
2017-Jun-19 07:00N 34°38' E 135°24'3 5.7
2017-Jun-19 06:30N 34°39' E 135°27'0 0.0
2017-Jun-19 05:58N 34°39' E 135°27'0 0.0
2017-Jun-18 23:28N 34°39' E 135°27'0 0.0
2017-Jun-18 22:59N 34°39' E 135°27'2 5.2
2017-Jun-18 22:30N 34°39' E 135°24'1 2.4
2017-Jun-18 21:55N 34°37' E 135°23'0 0.0
2017-Jun-18 21:19N 34°37' E 135°23'0 0.0
2017-Jun-18 21:01N 34°37' E 135°23'0 0.0
2017-Jun-18 20:25N 34°37' E 135°23'0 0.0
2017-Jun-18 19:55N 34°37' E 135°23'0 0.0
2017-Jun-18 19:25N 34°37' E 135°23'0 0.0
2017-Jun-18 18:55N 34°37' E 135°23'0 0.0
2017-Jun-18 18:25N 34°37' E 135°23'0 0.0
2017-Jun-18 17:55N 34°37' E 135°23'0 0.0
2017-Jun-18 17:25N 34°37' E 135°23'0 0.0
2017-Jun-18 16:55N 34°37' E 135°23'0 0.0
2017-Jun-18 16:25N 34°37' E 135°23'0 0.0
2017-Jun-18 15:55N 34°37' E 135°23'0 0.0
2017-Jun-18 15:19N 34°37' E 135°23'0 0.0
2017-Jun-18 14:49N 34°37' E 135°23'0 0.0
2017-Jun-18 13:55N 34°37' E 135°23'0 0.0
2017-Jun-18 13:25N 34°37' E 135°23'0 0.0
2017-Jun-18 13:00N 34°37' E 135°23'0 0.0
2017-Jun-18 12:25N 34°37' E 135°23'0 0.0
2017-Jun-18 11:55N 34°37' E 135°23'0 0.0
2017-Jun-18 11:19N 34°37' E 135°23'0 0.0
2017-Jun-18 10:49N 34°37' E 135°23'0 0.0
2017-Jun-18 10:25N 34°37' E 135°23'0 0.0
2017-Jun-18 09:43N 34°37' E 135°23'0 0.0
2017-Jun-18 09:25N 34°37' E 135°23'0 0.0
2017-Jun-18 08:43N 34°37' E 135°23'0 0.1
2017-Jun-18 08:31N 34°38' E 135°23'0 0.0
2017-Jun-18 07:55N 34°38' E 135°23'0 0.0
2017-Jun-18 07:31N 34°38' E 135°23'0 0.0
2017-Jun-18 06:54N 34°38' E 135°23'0 0.0
2017-Jun-18 06:25N 34°38' E 135°23'2 4.9
2017-Jun-18 06:00N 34°36' E 135°21'611.8
2017-Jun-18 05:29N 34°32' E 135°16'611.7
2017-Jun-18 05:00N 34°28' E 135°11'611.5
2017-Jun-18 04:30N 34°24' E 135°06'1210.5
2017-Jun-18 03:21N 34°13' E 134°59'  
2017-Jun-14 20:25N 34°08' E 134°44'  

Dump ship's entire track history